aviador You're here:

PAKK Decoded Metar

KOYUK in AK, USA
Report Time2018-05-26 07:56:00
UTC Time2018-05-26 08:02:08
Flight Rules vfr VFR
Wind020° at 06 kt
W.Decomp.*RWY 01: 6.0 kt HW 0.6 kt LCW
W.Rank020° ranks 3
Current wind is below 020° avg. (7.3)
Visibility9999 m
Phenomena:N/A
Clouds:Scattered 047 Hf
Expected CloudBase > 2,000 ft AGL from Temp-Dew spread
CeilingNone
Temp07°C (ISA -8)
Dew Point02°C (71% RH)
AAT3.2°C
QNH1004 hPa
Density Alt-367 ft
Elevation154 ft
Report Wrong Elevation
Raw Report
PAKK 260756Z AUTO 02006KT 10SM SCT047 07/02 A2966 RMK AO2 SLP057
T00720017=

Extra information for PAKK:More info

Metar Taf Metar & Taf Last 4 Metars F.Rules Stats Wind Profile Meteogram Temp Stats Airport Information Weather charts Add Link Nearby VenuesMetar ALERT Operation Metar Decoded Social comments

AIRNAV info for PAKK